createdAt,value
2018-07-05T00:01:40.162Z,100901.35
2018-07-05T00:04:45.476Z,100902.72
2018-07-05T00:07:51.018Z,100902.59
2018-07-05T00:10:56.481Z,100894.95
2018-07-05T00:14:01.744Z,100892.30
2018-07-05T00:17:07.346Z,100894.43
2018-07-05T00:20:12.570Z,100888.77
2018-07-05T00:23:17.683Z,100891.50
2018-07-05T00:26:23.170Z,100889.94
2018-07-05T00:29:28.814Z,100892.61
2018-07-05T00:32:34.448Z,100884.43
2018-07-05T00:35:39.744Z,100884.06
2018-07-05T00:38:45.393Z,100888.37
2018-07-05T00:41:50.571Z,100878.10
2018-07-05T00:44:57.920Z,100884.37
2018-07-05T00:48:03.091Z,100892.28
2018-07-05T00:51:08.617Z,100885.57
2018-07-05T00:54:13.954Z,100887.23
2018-07-05T00:57:19.521Z,100889.02
2018-07-05T01:00:25.053Z,100890.06
2018-07-05T01:03:30.615Z,100892.92
2018-07-05T01:06:36.007Z,100892.96
2018-07-05T01:09:41.648Z,100889.99
2018-07-05T01:12:47.043Z,100897.67
2018-07-05T01:15:52.209Z,100899.41
2018-07-05T01:18:57.481Z,100904.27
2018-07-05T01:22:03.101Z,100907.48
2018-07-05T01:25:08.298Z,100898.95
2018-07-05T01:28:14.015Z,100899.31
2018-07-05T01:31:19.412Z,100893.86
2018-07-05T01:34:25.141Z,100900.28
2018-07-05T01:37:30.955Z,100898.31
2018-07-05T01:40:36.097Z,100894.23
2018-07-05T01:43:41.662Z,100903.28
2018-07-05T01:46:47.191Z,100909.84
2018-07-05T01:49:52.302Z,100904.63
2018-07-05T01:52:59.804Z,100906.66
2018-07-05T01:56:05.637Z,100908.01
2018-07-05T01:59:11.250Z,100916.45
2018-07-05T02:02:16.832Z,100917.41
2018-07-05T02:05:22.284Z,100916.06
2018-07-05T02:08:27.883Z,100910.23
2018-07-05T02:11:33.215Z,100900.95
2018-07-05T02:14:38.504Z,100898.89
2018-07-05T02:17:43.725Z,100902.30
2018-07-05T02:20:49.084Z,100903.74
2018-07-05T02:23:54.271Z,100889.17
2018-07-05T02:26:59.964Z,100883.35
2018-07-05T02:30:05.577Z,100884.30
2018-07-05T02:33:10.992Z,100892.13
2018-07-05T02:36:16.212Z,100890.20
2018-07-05T02:39:39.804Z,100886.92
2018-07-05T02:42:44.784Z,100886.95
2018-07-05T02:45:49.984Z,100892.09
2018-07-05T02:48:55.071Z,100888.78
2018-07-05T02:52:00.684Z,100888.81
2018-07-05T02:55:06.319Z,100877.41
2018-07-05T02:58:11.951Z,100891.80
2018-07-05T03:01:17.285Z,100888.84
2018-07-05T03:04:22.719Z,100882.64
2018-07-05T03:07:28.337Z,100874.94
2018-07-05T03:10:36.008Z,100866.61
2018-07-05T03:13:41.318Z,100865.97
2018-07-05T03:16:46.684Z,100866.87
2018-07-05T03:19:51.937Z,100862.08
2018-07-05T03:22:57.602Z,100866.28
2018-07-05T03:26:02.967Z,100864.40
2018-07-05T03:29:08.596Z,100862.88
2018-07-05T03:32:14.267Z,100866.64
2018-07-05T03:35:19.896Z,100872.20
2018-07-05T03:38:24.928Z,100882.38
2018-07-05T03:41:31.377Z,100883.41
2018-07-05T03:44:36.904Z,100895.83
2018-07-05T03:47:42.410Z,100893.68
2018-07-05T03:50:47.868Z,100898.36
2018-07-05T03:53:53.521Z,100897.64
2018-07-05T03:57:00.222Z,100898.92
2018-07-05T04:00:04.080Z,100904.52
2018-07-05T04:03:09.245Z,100903.84
2018-07-05T04:06:14.410Z,100905.89
2018-07-05T04:09:20.014Z,100897.56
2018-07-05T04:12:25.342Z,100891.92
2018-07-05T04:15:31.117Z,100897.22
2018-07-05T04:18:36.616Z,100891.56
2018-07-05T04:21:42.251Z,100894.40
2018-07-05T04:24:47.908Z,100888.39
2018-07-05T04:27:53.423Z,100903.89
2018-07-05T04:30:58.939Z,100902.50
2018-07-05T04:34:04.209Z,100902.52
2018-07-05T04:37:09.432Z,100902.63
2018-07-05T04:40:14.733Z,100912.02
2018-07-05T04:43:19.985Z,100912.88
2018-07-05T04:46:25.648Z,100914.35
2018-07-05T04:49:31.176Z,100920.17
2018-07-05T04:52:36.826Z,100927.34
2018-07-05T04:55:42.063Z,100938.58
2018-07-05T04:58:47.168Z,100937.73
2018-07-05T05:01:52.598Z,100937.53
2018-07-05T05:04:58.106Z,100924.78
2018-07-05T05:08:03.601Z,100934.48
2018-07-05T05:11:09.046Z,100938.69
2018-07-05T05:14:14.408Z,100944.15
2018-07-05T05:17:20.136Z,100932.39
2018-07-05T05:20:25.220Z,100932.42
2018-07-05T05:23:30.409Z,100933.55
2018-07-05T05:26:35.853Z,100928.30
2018-07-05T05:29:41.007Z,100941.77
2018-07-05T05:32:46.454Z,100952.02
2018-07-05T05:35:52.208Z,100954.14
2018-07-05T05:38:57.609Z,100962.20
2018-07-05T05:42:03.143Z,100963.68
2018-07-05T05:45:08.547Z,100964.61
2018-07-05T05:48:13.943Z,100959.67
2018-07-05T05:51:19.542Z,100965.67
2018-07-05T05:54:24.709Z,100960.98
2018-07-05T05:57:30.171Z,100964.30
2018-07-05T06:00:35.674Z,100962.75
2018-07-05T06:03:41.137Z,100948.70
2018-07-05T06:06:46.558Z,100950.72
2018-07-05T06:09:51.994Z,100959.80
2018-07-05T06:12:57.283Z,100959.25
2018-07-05T06:16:02.593Z,100957.40
2018-07-05T06:19:08.064Z,100948.83
2018-07-05T06:22:13.402Z,100957.28
2018-07-05T06:25:19.127Z,100958.86
2018-07-05T06:28:24.724Z,100954.67
2018-07-05T06:31:30.319Z,100953.08
2018-07-05T06:34:36.627Z,100959.19
2018-07-05T06:37:41.964Z,100973.23
2018-07-05T06:40:47.201Z,100970.59
2018-07-05T06:43:52.434Z,100961.51
2018-07-05T06:46:57.865Z,100971.05
2018-07-05T06:50:03.068Z,100970.60
2018-07-05T06:53:08.652Z,100965.56
2018-07-05T06:56:15.598Z,100962.43
2018-07-05T06:59:21.051Z,100956.55
2018-07-05T07:02:26.495Z,100947.83
2018-07-05T07:05:31.935Z,100946.30
2018-07-05T07:08:37.400Z,100949.08
2018-07-05T07:11:45.187Z,100939.39
2018-07-05T07:14:50.555Z,100933.52
2018-07-05T07:17:55.915Z,100937.44
2018-07-05T07:21:01.118Z,100938.19
2018-07-05T07:24:06.566Z,100937.28
2018-07-05T07:27:12.056Z,100938.20
2018-07-05T07:30:17.391Z,100947.70
2018-07-05T07:33:22.697Z,100947.30
2018-07-05T07:36:27.965Z,100952.50
2018-07-05T07:39:36.396Z,100955.19
2018-07-05T07:42:04.361Z,100952.67
2018-07-05T07:44:32.140Z,100954.40
2018-07-05T07:47:02.775Z,100957.66
2018-07-05T07:49:40.357Z,100960.64
2018-07-05T07:52:27.838Z,100962.15
2018-07-05T07:56:25.030Z,100957.20
2018-07-05T07:57:18.603Z,100964.27
2018-07-05T07:59:46.879Z,100968.47
2018-07-05T08:02:17.175Z,100959.13
2018-07-05T08:04:45.081Z,100957.47
2018-07-05T08:07:12.861Z,100955.67
2018-07-05T08:09:40.756Z,100952.89
2018-07-05T08:12:08.742Z,100953.27
2018-07-05T08:14:36.583Z,100952.22
2018-07-05T08:17:04.561Z,100946.47
2018-07-05T08:19:32.525Z,100940.83
2018-07-05T08:22:00.413Z,100943.89
2018-07-05T08:24:28.225Z,100943.02
2018-07-05T08:26:56.269Z,100950.08
2018-07-05T08:29:24.107Z,100950.09
2018-07-05T08:31:52.092Z,100949.55
2018-07-05T08:34:19.975Z,100949.35
2018-07-05T08:36:50.174Z,100952.63
2018-07-05T08:39:18.328Z,100952.56
2018-07-05T08:41:49.487Z,100955.33
2018-07-05T08:44:17.461Z,100959.91
2018-07-05T08:46:47.578Z,100955.34
2018-07-05T08:49:18.140Z,100951.97
2018-07-05T08:51:48.410Z,100955.13
2018-07-05T08:54:14.703Z,100953.22
2018-07-05T08:56:44.602Z,100954.51
2018-07-05T08:59:15.099Z,100957.47
2018-07-05T09:02:05.564Z,100952.63
2018-07-05T09:04:34.445Z,100956.34
2018-07-05T09:07:05.367Z,100946.81
2018-07-05T09:09:32.178Z,100950.39
2018-07-05T09:11:58.697Z,100944.05
2018-07-05T09:14:26.528Z,100951.22
2018-07-05T09:16:54.696Z,100950.27
2018-07-05T09:19:22.589Z,100947.41
2018-07-05T09:22:38.931Z,100952.91
2018-07-05T09:24:19.423Z,100956.27
2018-07-05T09:26:57.587Z,100942.65
2018-07-05T09:29:25.698Z,100939.51
2018-07-05T09:31:53.664Z,100940.73
2018-07-05T09:45:25.563Z,100928.23
2018-07-05T09:51:44.261Z,100921.63
2018-07-05T09:54:43.600Z,100928.00
2018-07-05T09:57:39.114Z,100927.79
2018-07-05T10:00:20.089Z,100932.63
2018-07-05T10:06:04.280Z,100929.22
2018-07-05T10:08:44.024Z,100937.16
2018-07-05T10:11:21.464Z,100932.13
2018-07-05T10:13:56.966Z,100931.39
2018-07-05T10:16:48.380Z,100926.97
2018-07-05T10:24:28.904Z,100931.38
2018-07-05T10:25:48.980Z,100938.05
2018-07-05T10:36:11.565Z,100937.12
2018-07-05T10:39:11.912Z,100939.73
2018-07-05T10:43:10.233Z,100934.91
2018-07-05T10:45:59.044Z,100937.06
2018-07-05T10:53:37.281Z,100934.70
2018-07-05T10:57:33.243Z,100936.95
2018-07-05T11:04:32.372Z,100930.20
2018-07-05T11:08:25.983Z,100930.05
2018-07-05T11:12:00.207Z,100934.93
2018-07-05T11:15:13.508Z,100926.84
2018-07-05T11:36:42.185Z,100925.64
2018-07-05T11:39:59.585Z,100923.41
2018-07-05T11:43:33.119Z,100925.55
2018-07-05T11:47:16.555Z,100936.09
2018-07-05T11:50:45.313Z,100922.80
2018-07-05T12:04:52.236Z,100928.63
2018-07-05T12:12:17.040Z,100928.80
2018-07-05T12:15:40.284Z,100930.58
2018-07-05T12:19:43.911Z,100923.63
2018-07-05T12:22:58.911Z,100927.04
2018-07-05T12:26:17.070Z,100930.27
2018-07-05T12:33:23.972Z,100929.06
2018-07-05T12:36:41.089Z,100934.11
2018-07-05T12:40:01.271Z,100934.95
2018-07-05T12:43:14.576Z,100928.53
2018-07-05T12:50:23.457Z,100925.16
2018-07-05T12:53:50.623Z,100932.47
2018-07-05T12:56:58.595Z,100930.77
2018-07-05T13:00:50.051Z,100926.58
2018-07-05T13:04:00.748Z,100938.30
2018-07-05T13:08:23.983Z,100936.95
2018-07-05T13:11:21.451Z,100939.75
2018-07-05T13:14:42.852Z,100936.11
2018-07-05T13:17:54.563Z,100936.05
2018-07-05T13:21:08.439Z,100939.39
2018-07-05T13:24:41.989Z,100946.13
2018-07-05T13:27:46.933Z,100950.05
2018-07-05T13:38:02.633Z,100961.20
2018-07-05T13:41:16.052Z,100949.10
2018-07-05T13:44:27.310Z,100953.89
2018-07-05T13:47:52.087Z,100955.85
2018-07-05T13:51:01.745Z,100949.39
2018-07-05T13:58:00.589Z,100954.92
2018-07-05T14:05:15.707Z,100957.91
2018-07-05T14:08:29.050Z,100960.40
2018-07-05T14:11:53.580Z,100959.55
2018-07-05T14:15:05.703Z,100954.79
2018-07-05T14:19:02.144Z,100952.25
2018-07-05T14:21:33.634Z,100952.37
2018-07-05T14:28:33.128Z,100955.92
2018-07-05T14:31:50.844Z,100957.84
2018-07-05T14:34:57.786Z,100958.98
2018-07-05T14:38:00.995Z,100959.89
2018-07-05T14:41:09.506Z,100968.51
2018-07-05T14:44:14.983Z,100965.77
2018-07-05T14:47:20.617Z,100968.17
2018-07-05T14:50:26.092Z,100961.28
2018-07-05T14:53:31.160Z,100959.21
2018-07-05T14:56:36.322Z,100955.31
2018-07-05T14:59:41.463Z,100958.63
2018-07-05T15:02:47.014Z,100965.07
2018-07-05T15:05:55.448Z,100977.70
2018-07-05T15:09:00.855Z,100968.94
2018-07-05T15:12:06.007Z,100966.14
2018-07-05T15:15:11.354Z,100971.80
2018-07-05T15:18:16.887Z,100969.92
2018-07-05T15:21:22.544Z,100972.67
2018-07-05T15:24:27.876Z,100975.77
2018-07-05T15:27:33.466Z,100972.61
2018-07-05T15:30:38.723Z,100961.14
2018-07-05T15:33:43.917Z,100961.07
2018-07-05T15:36:49.154Z,100966.50
2018-07-05T15:39:54.746Z,100963.97
2018-07-05T15:43:08.947Z,100966.92
2018-07-05T15:46:34.934Z,100964.31
2018-07-05T15:49:58.988Z,100965.67
2018-07-05T15:53:41.827Z,100968.53
2018-07-05T15:57:10.299Z,100968.78
2018-07-05T16:03:42.803Z,100982.50
2018-07-05T16:07:16.935Z,100980.20
2018-07-05T16:14:13.880Z,100975.69
2018-07-05T16:17:21.988Z,100978.98
2018-07-05T16:23:49.845Z,100978.41
2018-07-05T16:27:16.652Z,100975.83
2018-07-05T16:30:26.893Z,100975.63
2018-07-05T16:33:44.218Z,100977.78
2018-07-05T16:36:51.384Z,100980.76
2018-07-05T16:40:32.907Z,100976.76
2018-07-05T16:43:51.618Z,100975.92
2018-07-05T16:51:01.910Z,100980.56
2018-07-05T16:54:55.485Z,100987.81
2018-07-05T17:05:07.137Z,100989.00
2018-07-05T17:08:19.607Z,100984.84
2018-07-05T17:11:48.945Z,100987.32
2018-07-05T17:15:27.805Z,100964.20
2018-07-05T17:18:46.287Z,100983.98
2018-07-05T17:25:48.562Z,100990.66
2018-07-05T17:36:30.697Z,101005.80
2018-07-05T17:39:52.381Z,101009.60
2018-07-05T17:43:23.239Z,101016.70
2018-07-05T17:46:46.791Z,101020.37
2018-07-05T17:49:37.009Z,101028.37
2018-07-05T17:52:42.536Z,101029.56
2018-07-05T17:55:47.917Z,101026.94
2018-07-05T17:58:53.369Z,101035.00
2018-07-05T18:01:58.741Z,101037.56
2018-07-05T18:05:04.271Z,101043.58
2018-07-05T18:08:09.723Z,101048.66
2018-07-05T18:11:15.477Z,101055.10
2018-07-05T18:14:21.110Z,101051.34
2018-07-05T18:17:26.684Z,101057.95
2018-07-05T18:20:34.471Z,101067.55
2018-07-05T18:23:39.737Z,101064.91
2018-07-05T18:26:50.795Z,101067.84
2018-07-05T18:29:56.042Z,101066.87
2018-07-05T18:33:01.171Z,101064.00
2018-07-05T18:36:06.670Z,101060.90
2018-07-05T18:39:16.675Z,101070.94
2018-07-05T18:42:22.121Z,101072.41
2018-07-05T18:45:27.582Z,101078.66
2018-07-05T18:48:33.056Z,101082.91
2018-07-05T18:51:42.932Z,101092.01
2018-07-05T18:54:49.720Z,101093.38
2018-07-05T18:57:52.589Z,101094.31
2018-07-05T19:00:57.941Z,101097.53
2018-07-05T19:04:03.591Z,101105.75
2018-07-05T19:07:09.517Z,101108.75
2018-07-05T19:10:15.291Z,101103.85
2018-07-05T19:13:20.585Z,101111.65
2018-07-05T19:16:32.577Z,101111.65
2018-07-05T19:19:37.794Z,101117.38
2018-07-05T19:22:43.050Z,101115.23
2018-07-05T19:25:48.279Z,101120.85
2018-07-05T19:28:53.663Z,101122.20
2018-07-05T19:31:59.169Z,101126.44
2018-07-05T19:35:04.592Z,101123.55
2018-07-05T19:38:10.361Z,101128.55
2018-07-05T19:41:15.997Z,101133.33
2018-07-05T19:44:21.440Z,101132.64
2018-07-05T19:47:26.906Z,101140.89
2018-07-05T19:50:32.471Z,101147.23
2018-07-05T19:53:37.879Z,101147.61
2018-07-05T19:56:42.991Z,101158.98
2018-07-05T19:59:51.649Z,101157.91
2018-07-05T20:02:57.357Z,101153.39
2018-07-05T20:06:02.880Z,101159.27
2018-07-05T20:09:08.909Z,101166.96
2018-07-05T20:12:14.568Z,101160.46
2018-07-05T20:15:20.217Z,101159.58
2018-07-05T20:18:25.668Z,101165.28
2018-07-05T20:21:31.219Z,101170.14
2018-07-05T20:24:36.792Z,101176.91
2018-07-05T20:27:42.317Z,101173.34
2018-07-05T20:30:47.750Z,101174.50
2018-07-05T20:33:53.325Z,101180.14
2018-07-05T20:36:59.232Z,101184.80
2018-07-05T20:40:04.807Z,101184.47
2018-07-05T20:43:10.506Z,101191.55
2018-07-05T20:46:15.825Z,101191.83
2018-07-05T20:49:20.987Z,101194.33
2018-07-05T20:52:26.224Z,101193.20
2018-07-05T20:55:31.965Z,101199.87
2018-07-05T20:58:37.630Z,101202.89
2018-07-05T21:01:45.808Z,101210.82
2018-07-05T21:04:48.927Z,101207.65
2018-07-05T21:07:54.519Z,101217.66
2018-07-05T21:11:00.198Z,101226.70
2018-07-05T21:14:06.059Z,101214.28
2018-07-05T21:17:11.603Z,101230.19
2018-07-05T21:20:17.246Z,101230.12
2018-07-05T21:23:22.834Z,101232.79
2018-07-05T21:26:28.339Z,101225.19
2018-07-05T21:29:33.615Z,101232.25
2018-07-05T21:32:39.186Z,101233.96
2018-07-05T21:35:44.633Z,101230.55
2018-07-05T21:38:50.181Z,101228.23
2018-07-05T21:41:55.564Z,101244.45
2018-07-05T21:45:00.709Z,101245.55
2018-07-05T21:48:05.986Z,101242.95
2018-07-05T21:51:11.589Z,101246.10
2018-07-05T21:54:16.933Z,101253.48
2018-07-05T21:57:22.409Z,101255.08
2018-07-05T22:00:28.047Z,101258.50
2018-07-05T22:03:33.427Z,101253.45
2018-07-05T22:06:39.032Z,101255.88
2018-07-05T22:09:46.802Z,101266.12
2018-07-05T22:12:51.956Z,101264.67
2018-07-05T22:15:57.407Z,101259.72
2018-07-05T22:19:20.708Z,101270.80
2018-07-05T22:22:44.173Z,101275.02
2018-07-05T22:26:27.043Z,101280.66
2018-07-05T22:29:50.298Z,101281.25
2018-07-05T22:32:55.543Z,101279.66
2018-07-05T22:36:01.040Z,101285.19
2018-07-05T22:39:06.708Z,101275.53
2018-07-05T22:42:12.066Z,101289.27
2018-07-05T22:45:17.281Z,101294.98
2018-07-05T22:48:22.455Z,101287.94
2018-07-05T22:51:27.710Z,101283.94
2018-07-05T22:54:34.809Z,101285.73
2018-07-05T22:57:40.606Z,101292.75
2018-07-05T23:00:46.430Z,101296.07
2018-07-05T23:03:51.710Z,101305.67
2018-07-05T23:06:57.101Z,101306.59
2018-07-05T23:10:02.329Z,101311.21
2018-07-05T23:13:07.566Z,101313.11
2018-07-05T23:16:13.080Z,101305.58
2018-07-05T23:19:18.577Z,101309.05
2018-07-05T23:22:24.301Z,101315.39
2018-07-05T23:25:30.068Z,101320.23
2018-07-05T23:28:35.317Z,101320.06
2018-07-05T23:31:40.882Z,101309.27
2018-07-05T23:34:46.382Z,101312.00
2018-07-05T23:37:51.576Z,101310.30
2018-07-05T23:40:57.101Z,101310.88
2018-07-05T23:44:02.260Z,101317.55
2018-07-05T23:47:07.535Z,101317.24
2018-07-05T23:50:13.316Z,101316.01
2018-07-05T23:53:18.951Z,101317.24
2018-07-05T23:56:25.962Z,101323.23
2018-07-05T23:59:29.989Z,101325.47
